createdAt,value
2022-08-21T00:00:26.158Z,5.23
2022-08-21T00:03:05.309Z,5.47
2022-08-21T00:05:33.808Z,5.50
2022-08-21T00:08:03.400Z,5.47
2022-08-21T00:10:30.369Z,5.10
2022-08-21T00:13:05.933Z,5.77
2022-08-21T00:35:17.123Z,5.13
2022-08-21T00:37:45.320Z,5.33
2022-08-21T00:40:20.833Z,5.40
2022-08-21T00:42:53.802Z,5.80
2022-08-21T00:45:22.564Z,5.40
2022-08-21T00:47:53.664Z,5.33
2022-08-21T00:50:22.291Z,6.00
2022-08-21T00:52:52.405Z,5.17
2022-08-21T00:56:01.140Z,5.20
2022-08-21T00:58:30.309Z,6.00
2022-08-21T01:00:59.344Z,6.37
2022-08-21T01:03:29.407Z,5.30
2022-08-21T01:05:56.770Z,5.13
2022-08-21T01:08:28.774Z,5.40
2022-08-21T01:10:57.356Z,5.27
2022-08-21T01:13:26.388Z,5.13
2022-08-21T01:15:57.892Z,4.80
2022-08-21T01:18:25.455Z,5.23
2022-08-21T01:21:13.555Z,5.13
2022-08-21T01:23:44.420Z,5.27
2022-08-21T01:26:13.484Z,5.17
2022-08-21T01:29:02.050Z,5.30
2022-08-21T01:31:31.831Z,5.67
2022-08-21T01:33:59.038Z,5.87
2022-08-21T01:36:28.705Z,5.43
2022-08-21T01:38:56.809Z,5.43
2022-08-21T01:41:28.418Z,6.07
2022-08-21T01:43:58.158Z,5.70
2022-08-21T01:46:25.396Z,5.70
2022-08-21T01:48:57.598Z,5.37
2022-08-21T01:51:27.012Z,5.87
2022-08-21T01:53:54.341Z,5.90
2022-08-21T01:56:23.219Z,5.50
2022-08-21T01:58:50.659Z,5.20
2022-08-21T02:01:17.785Z,5.97
2022-08-21T02:03:45.064Z,4.90
2022-08-21T02:06:19.102Z,5.50
2022-08-21T02:08:47.486Z,5.30
2022-08-21T02:11:18.128Z,5.53
2022-08-21T02:13:45.544Z,5.40
2022-08-21T02:16:13.527Z,5.83
2022-08-21T02:18:46.805Z,4.83
2022-08-21T02:21:13.932Z,5.33
2022-08-21T02:23:41.033Z,5.97
2022-08-21T02:26:09.968Z,5.67
2022-08-21T02:28:37.978Z,5.70
2022-08-21T02:31:06.486Z,5.83
2022-08-21T02:33:34.850Z,5.30
2022-08-21T02:36:05.369Z,5.67
2022-08-21T02:38:35.682Z,5.57
2022-08-21T02:41:02.939Z,5.67
2022-08-21T02:43:32.325Z,5.63
2022-08-21T02:45:59.456Z,5.50
2022-08-21T02:48:29.425Z,5.13
2022-08-21T02:51:02.298Z,5.50
2022-08-21T02:53:30.688Z,5.37
2022-08-21T02:56:00.309Z,5.27
2022-08-21T02:58:32.724Z,5.47
2022-08-21T03:00:59.818Z,5.87
2022-08-21T03:03:29.397Z,5.73
2022-08-21T03:05:57.188Z,5.53
2022-08-21T03:08:27.828Z,5.37
2022-08-21T03:10:55.677Z,5.87
2022-08-21T03:13:23.509Z,5.60
2022-08-21T03:15:50.998Z,5.93
2022-08-21T03:18:18.933Z,7.47
2022-08-21T03:20:46.586Z,5.63
2022-08-21T03:23:19.088Z,6.60
2022-08-21T03:25:48.467Z,5.70
2022-08-21T03:28:19.557Z,6.80
2022-08-21T03:30:48.449Z,6.93
2022-08-21T03:33:16.120Z,6.93
2022-08-21T03:35:45.515Z,6.70
2022-08-21T03:38:14.230Z,5.90
2022-08-21T03:40:42.998Z,6.57
2022-08-21T03:43:10.656Z,6.33
2022-08-21T03:45:38.525Z,6.10
2022-08-21T03:48:07.488Z,5.97
2022-08-21T03:50:40.937Z,6.10
2022-08-21T03:53:17.127Z,6.13
2022-08-21T03:55:49.981Z,6.63
2022-08-21T03:58:19.747Z,6.47
2022-08-21T04:00:49.163Z,6.20
2022-08-21T04:03:16.938Z,6.70
2022-08-21T04:05:46.593Z,6.20
2022-08-21T04:08:15.203Z,5.83
2022-08-21T04:10:44.449Z,5.50
2022-08-21T04:13:11.706Z,5.60
2022-08-21T04:15:39.412Z,6.27
2022-08-21T04:18:06.837Z,6.27
2022-08-21T04:20:34.596Z,5.73
2022-08-21T04:23:02.683Z,5.47
2022-08-21T04:25:29.930Z,6.10
2022-08-21T04:27:57.931Z,6.17
2022-08-21T04:30:27.952Z,6.20
2022-08-21T04:32:57.654Z,5.97
2022-08-21T04:35:26.804Z,5.60
2022-08-21T04:37:53.665Z,6.20
2022-08-21T04:40:22.654Z,6.13
2022-08-21T04:42:53.302Z,6.60
2022-08-21T04:45:28.603Z,6.17
2022-08-21T04:47:57.903Z,5.07
2022-08-21T04:50:30.318Z,5.57
2022-08-21T04:52:58.038Z,4.93
2022-08-21T04:55:27.703Z,5.93
2022-08-21T04:57:56.132Z,5.70
2022-08-21T05:00:25.742Z,5.97
2022-08-21T05:03:00.443Z,5.50
2022-08-21T05:05:30.611Z,5.60
2022-08-21T05:08:03.063Z,5.87
2022-08-21T05:10:35.968Z,6.10
2022-08-21T05:13:07.294Z,5.67
2022-08-21T05:15:36.757Z,5.33
2022-08-21T05:18:13.701Z,6.00
2022-08-21T05:20:48.505Z,6.27
2022-08-21T05:23:16.602Z,6.40
2022-08-21T05:25:46.628Z,6.57
2022-08-21T05:28:21.906Z,6.27
2022-08-21T05:30:51.634Z,7.40
2022-08-21T05:33:21.653Z,7.40
2022-08-21T05:35:58.188Z,7.43
2022-08-21T05:38:35.977Z,8.13
2022-08-21T05:41:32.021Z,8.03
2022-08-21T05:44:11.456Z,8.60
2022-08-21T05:46:43.907Z,8.73
2022-08-21T05:49:19.339Z,8.90
2022-08-21T05:51:55.830Z,8.30
2022-08-21T05:54:39.726Z,8.00
2022-08-21T05:57:06.787Z,8.03
2022-08-21T05:59:34.027Z,7.90
2022-08-21T06:02:05.619Z,7.67
2022-08-21T06:04:37.589Z,7.77
2022-08-21T06:07:05.557Z,8.60
2022-08-21T06:09:33.972Z,8.47
2022-08-21T06:12:13.007Z,8.43
2022-08-21T06:14:42.095Z,8.40
2022-08-21T06:17:13.659Z,8.60
2022-08-21T06:19:40.856Z,8.07
2022-08-21T06:22:07.988Z,6.72
2022-08-21T06:24:38.519Z,6.90
2022-08-21T06:27:08.536Z,6.20
2022-08-21T06:29:44.589Z,5.80
2022-08-21T06:32:17.155Z,5.05
2022-08-21T06:34:45.005Z,5.18
2022-08-21T06:37:12.716Z,5.13
2022-08-21T06:39:45.033Z,4.80
2022-08-21T06:42:18.802Z,4.20
2022-08-21T06:44:49.316Z,3.58
2022-08-21T06:47:28.431Z,3.83
2022-08-21T06:53:18.417Z,2.58
2022-08-21T06:55:49.747Z,3.50
2022-08-21T06:58:27.648Z,2.92
2022-08-21T07:01:08.998Z,3.17
2022-08-21T07:03:46.681Z,2.25
2022-08-21T07:06:41.071Z,2.63
2022-08-21T07:09:11.612Z,2.50
2022-08-21T07:11:42.399Z,2.58
2022-08-21T07:14:20.353Z,2.22
2022-08-21T07:17:00.086Z,2.47
2022-08-21T07:19:29.023Z,3.00
2022-08-21T07:22:04.668Z,2.38
2022-08-21T07:24:31.970Z,2.38
2022-08-21T07:27:31.746Z,2.40
2022-08-21T07:29:59.898Z,2.22
2022-08-21T07:35:21.881Z,2.58
2022-08-21T07:37:56.032Z,2.45
2022-08-21T07:40:40.467Z,2.58
2022-08-21T07:43:16.934Z,2.10
2022-08-21T07:45:48.781Z,2.00
2022-08-21T07:48:16.732Z,1.65
2022-08-21T07:50:54.158Z,2.20
2022-08-21T07:53:21.158Z,1.85
2022-08-21T07:55:48.277Z,2.03
2022-08-21T07:58:47.750Z,1.77
2022-08-21T08:01:36.642Z,1.95
2022-08-21T08:04:13.223Z,1.80
2022-08-21T08:06:45.302Z,1.77
2022-08-21T08:09:25.563Z,1.90
2022-08-21T08:11:55.399Z,1.92
2022-08-21T08:14:31.501Z,2.33
2022-08-21T08:17:03.642Z,2.20
2022-08-21T08:19:37.850Z,2.50
2022-08-21T08:22:38.467Z,2.42
2022-08-21T08:25:10.941Z,2.72
2022-08-21T08:27:43.918Z,2.55
2022-08-21T08:30:13.603Z,2.25
2022-08-21T08:32:41.463Z,2.60
2022-08-21T08:35:10.346Z,2.80
2022-08-21T08:37:41.382Z,2.40
2022-08-21T08:40:19.029Z,2.80
2022-08-21T08:42:48.339Z,2.50
2022-08-21T08:45:20.883Z,2.50
2022-08-21T08:47:59.722Z,2.58
2022-08-21T08:50:50.842Z,2.50
2022-08-21T08:53:53.275Z,2.22
2022-08-21T08:56:28.979Z,3.20
2022-08-21T08:59:08.236Z,2.60
2022-08-21T09:01:39.002Z,2.45
2022-08-21T09:04:16.252Z,3.35
2022-08-21T09:07:02.060Z,2.22
2022-08-21T09:09:58.600Z,2.25
2022-08-21T09:13:02.581Z,2.58
2022-08-21T09:16:18.356Z,1.95
2022-08-21T09:19:12.846Z,2.60
2022-08-21T09:22:01.811Z,1.90
2022-08-21T09:24:53.201Z,2.17
2022-08-21T09:27:23.184Z,2.60
2022-08-21T09:29:59.892Z,2.83
2022-08-21T09:32:37.468Z,2.10
2022-08-21T09:35:16.855Z,2.03
2022-08-21T09:38:03.101Z,2.28
2022-08-21T09:40:37.895Z,2.15
2022-08-21T09:43:18.332Z,2.40
2022-08-21T09:45:46.727Z,2.28
2022-08-21T09:48:26.909Z,2.38
2022-08-21T09:51:24.594Z,2.33
2022-08-21T09:57:29.636Z,2.28
2022-08-21T09:59:59.301Z,1.98
2022-08-21T10:02:32.177Z,2.03
2022-08-21T10:05:39.623Z,2.28
2022-08-21T10:08:17.014Z,2.60
2022-08-21T10:10:44.062Z,2.10
2022-08-21T10:13:49.274Z,2.47
2022-08-21T10:16:49.987Z,2.50
2022-08-21T10:19:24.864Z,2.42
2022-08-21T10:22:39.440Z,2.13
2022-08-21T10:25:22.465Z,1.88
2022-08-21T10:28:08.070Z,2.40
2022-08-21T10:31:03.064Z,2.30
2022-08-21T10:36:48.012Z,1.90
2022-08-21T10:40:06.642Z,1.48
2022-08-21T10:42:40.557Z,1.85
2022-08-21T10:45:24.898Z,2.22
2022-08-21T10:48:35.856Z,2.30
2022-08-21T10:51:19.667Z,2.15
2022-08-21T10:54:23.223Z,1.90
2022-08-21T10:56:57.772Z,2.15
2022-08-21T10:59:38.636Z,1.90
2022-08-21T11:02:15.153Z,2.28
2022-08-21T11:05:04.274Z,2.22
2022-08-21T11:07:38.849Z,2.55
2022-08-21T11:10:24.619Z,2.20
2022-08-21T11:13:31.057Z,2.20
2022-08-21T11:16:25.169Z,2.13
2022-08-21T11:18:59.600Z,2.10
2022-08-21T11:21:44.342Z,2.08
2022-08-21T11:24:24.676Z,1.60
2022-08-21T11:26:58.184Z,2.08
2022-08-21T11:29:41.308Z,2.17
2022-08-21T11:32:47.516Z,1.77
2022-08-21T11:35:34.646Z,2.20
2022-08-21T11:38:16.309Z,2.15
2022-08-21T11:40:49.353Z,2.72
2022-08-21T11:43:43.649Z,2.05
2022-08-21T11:46:29.425Z,1.90
2022-08-21T11:49:17.765Z,2.17
2022-08-21T11:51:51.842Z,2.03
2022-08-21T11:54:42.434Z,2.20
2022-08-21T11:57:20.704Z,1.95
2022-08-21T12:00:10.569Z,2.20
2022-08-21T12:02:43.304Z,2.22
2022-08-21T12:05:23.095Z,2.00
2022-08-21T12:08:12.418Z,2.00
2022-08-21T12:10:48.751Z,7.97
2022-08-21T12:13:39.794Z,1.90
2022-08-21T12:16:16.764Z,1.95
2022-08-21T12:18:46.889Z,1.92
2022-08-21T12:21:27.244Z,2.00
2022-08-21T12:24:22.171Z,2.28
2022-08-21T12:26:54.000Z,2.20
2022-08-21T12:29:31.627Z,2.67
2022-08-21T12:32:11.248Z,27.73
2022-08-21T12:35:25.800Z,3.55
2022-08-21T12:38:32.680Z,2.45
2022-08-21T12:41:26.958Z,2.10
2022-08-21T12:44:11.418Z,2.55
2022-08-21T12:46:45.382Z,2.53
2022-08-21T12:49:26.717Z,2.50
2022-08-21T12:52:21.154Z,2.42
2022-08-21T12:54:48.240Z,2.03
2022-08-21T12:57:29.405Z,1.90
2022-08-21T13:00:09.787Z,1.75
2022-08-21T13:02:44.675Z,2.30
2022-08-21T13:05:16.549Z,2.45
2022-08-21T13:07:53.533Z,2.20
2022-08-21T13:10:38.603Z,2.65
2022-08-21T13:13:25.558Z,2.05
2022-08-21T13:16:07.734Z,2.33
2022-08-21T13:18:59.111Z,2.10
2022-08-21T13:21:32.451Z,3.22
2022-08-21T13:27:27.745Z,2.42
2022-08-21T13:30:13.577Z,2.15
2022-08-21T13:32:49.060Z,2.03
2022-08-21T13:35:24.200Z,2.50
2022-08-21T13:37:56.726Z,2.58
2022-08-21T13:40:41.175Z,2.15
2022-08-21T13:43:14.847Z,2.00
2022-08-21T13:45:54.235Z,1.90
2022-08-21T13:48:25.589Z,2.30
2022-08-21T13:50:57.540Z,2.50
2022-08-21T13:53:34.984Z,2.00
2022-08-21T13:56:03.902Z,2.00
2022-08-21T13:58:48.934Z,2.22
2022-08-21T14:01:40.783Z,2.28
2022-08-21T14:04:25.838Z,2.08
2022-08-21T14:06:56.123Z,2.25
2022-08-21T14:09:44.756Z,1.88
2022-08-21T14:12:29.843Z,2.00
2022-08-21T14:15:05.012Z,1.75
2022-08-21T14:17:45.265Z,2.10
2022-08-21T14:20:32.030Z,2.00
2022-08-21T14:23:02.162Z,2.42
2022-08-21T14:25:54.383Z,2.00
2022-08-21T14:28:34.956Z,1.90
2022-08-21T14:31:22.504Z,2.47
2022-08-21T14:33:49.713Z,2.35
2022-08-21T14:36:16.979Z,2.15
2022-08-21T14:38:43.927Z,2.42
2022-08-21T14:41:25.327Z,2.63
2022-08-21T14:44:09.388Z,2.58
2022-08-21T14:46:45.834Z,2.38
2022-08-21T14:49:26.319Z,2.72
2022-08-21T14:52:05.283Z,2.28
2022-08-21T14:54:33.175Z,2.90
2022-08-21T14:57:04.632Z,2.88
2022-08-21T14:59:34.693Z,2.33
2022-08-21T15:02:05.131Z,3.25
2022-08-21T15:04:32.948Z,2.42
2022-08-21T15:06:59.976Z,2.58
2022-08-21T15:09:27.178Z,2.95
2022-08-21T15:11:57.952Z,2.58
2022-08-21T15:14:30.219Z,2.60
2022-08-21T15:16:57.795Z,2.63
2022-08-21T15:19:34.210Z,2.90
2022-08-21T15:22:04.184Z,2.95
2022-08-21T15:24:39.058Z,2.60
2022-08-21T15:27:26.792Z,3.08
2022-08-21T15:29:55.873Z,3.00
2022-08-21T15:32:32.093Z,2.70
2022-08-21T15:35:02.838Z,2.67
2022-08-21T15:37:40.681Z,2.53
2022-08-21T15:40:20.813Z,2.80
2022-08-21T15:55:56.811Z,2.92
2022-08-21T15:59:15.131Z,2.50
2022-08-21T16:01:51.480Z,2.20
2022-08-21T16:04:34.211Z,2.42
2022-08-21T16:07:18.483Z,2.33
2022-08-21T16:10:18.874Z,2.20
2022-08-21T16:12:49.313Z,2.30
2022-08-21T16:15:55.391Z,2.67
2022-08-21T16:18:25.831Z,2.45
2022-08-21T16:20:53.099Z,2.53
2022-08-21T16:23:25.408Z,2.97
2022-08-21T16:25:52.656Z,2.30
2022-08-21T16:28:21.656Z,2.17
2022-08-21T16:30:50.184Z,2.00
2022-08-21T16:33:49.508Z,2.78
2022-08-21T16:36:18.178Z,2.45
2022-08-21T16:38:54.680Z,2.50
2022-08-21T16:41:28.544Z,2.80
2022-08-21T16:43:55.575Z,2.50
2022-08-21T16:46:25.895Z,2.80
2022-08-21T16:48:52.926Z,3.25
2022-08-21T16:51:20.175Z,2.70
2022-08-21T16:53:47.266Z,2.13
2022-08-21T16:56:16.556Z,2.20
2022-08-21T16:58:53.799Z,2.42
2022-08-21T17:01:38.165Z,2.45
2022-08-21T17:04:42.000Z,2.30
2022-08-21T17:07:14.699Z,2.00
2022-08-21T17:10:11.023Z,1.90
2022-08-21T17:12:56.126Z,2.20
2022-08-21T17:15:32.007Z,2.63
2022-08-21T17:18:35.720Z,2.22
2022-08-21T17:21:08.419Z,2.10
2022-08-21T17:23:40.530Z,2.13
2022-08-21T17:26:08.458Z,1.95
2022-08-21T17:28:56.075Z,2.72
2022-08-21T17:31:56.008Z,2.75
2022-08-21T17:34:47.449Z,2.10
2022-08-21T17:37:29.508Z,2.65
2022-08-21T17:40:10.832Z,2.50
2022-08-21T17:42:42.328Z,1.98
2022-08-21T17:45:21.508Z,2.42
2022-08-21T17:49:52.852Z,2.50
2022-08-21T17:51:03.485Z,2.30
2022-08-21T17:53:35.668Z,2.60
2022-08-21T17:56:22.492Z,2.25
2022-08-21T17:58:52.289Z,2.90
2022-08-21T18:01:36.096Z,2.45
2022-08-21T18:04:45.403Z,2.30
2022-08-21T18:07:34.036Z,2.47
2022-08-21T18:10:52.489Z,2.15
2022-08-21T18:14:25.694Z,2.38
2022-08-21T18:17:16.572Z,2.38
2022-08-21T18:20:07.391Z,2.38
2022-08-21T18:25:58.311Z,2.25
2022-08-21T18:28:40.029Z,2.70
2022-08-21T18:32:26.837Z,2.53
2022-08-21T18:35:29.205Z,2.30
2022-08-21T18:38:14.915Z,2.17
2022-08-21T18:48:10.263Z,2.10
2022-08-21T18:50:42.308Z,2.42
2022-08-21T18:53:28.004Z,2.72
2022-08-21T18:56:18.327Z,2.15
2022-08-21T18:58:51.264Z,2.55
2022-08-21T19:01:42.046Z,3.35
2022-08-21T19:04:43.126Z,2.95
2022-08-21T19:07:14.713Z,2.45
2022-08-21T19:10:28.360Z,2.70
2022-08-21T19:12:59.099Z,2.65
2022-08-21T19:15:40.750Z,2.90
2022-08-21T19:18:12.857Z,1.92
2022-08-21T19:20:52.204Z,2.83
2022-08-21T19:23:28.922Z,2.78
2022-08-21T19:26:12.610Z,2.38
2022-08-21T19:28:46.292Z,2.38
2022-08-21T19:31:32.750Z,2.70
2022-08-21T19:34:11.856Z,2.60
2022-08-21T19:39:31.148Z,2.40
2022-08-21T19:42:01.564Z,2.22
2022-08-21T19:44:39.635Z,2.28
2022-08-21T19:47:19.035Z,2.50
2022-08-21T19:50:17.849Z,2.63
2022-08-21T19:53:11.933Z,2.45
2022-08-21T19:56:13.880Z,2.65
2022-08-21T19:58:54.950Z,2.97
2022-08-21T20:01:41.755Z,2.88
2022-08-21T20:04:19.560Z,2.65
2022-08-21T20:07:14.439Z,2.92
2022-08-21T20:09:54.892Z,2.60
2022-08-21T20:12:36.911Z,2.60
2022-08-21T20:15:56.908Z,3.05
2022-08-21T20:18:36.955Z,2.83
2022-08-21T20:21:17.936Z,2.47
2022-08-21T20:23:51.838Z,2.33
2022-08-21T20:26:34.634Z,2.58
2022-08-21T20:29:02.804Z,3.10
2022-08-21T20:31:41.445Z,3.42
2022-08-21T20:34:11.770Z,2.60
2022-08-21T20:36:53.753Z,2.70
2022-08-21T20:39:28.809Z,2.78
2022-08-21T20:41:57.137Z,3.17
2022-08-21T20:44:30.337Z,2.90
2022-08-21T20:47:09.090Z,2.95
2022-08-21T20:49:55.648Z,3.28
2022-08-21T20:52:29.664Z,3.22
2022-08-21T20:55:19.437Z,3.13
2022-08-21T20:58:13.877Z,3.75
2022-08-21T21:00:43.732Z,3.35
2022-08-21T21:03:37.000Z,4.18
2022-08-21T21:06:28.710Z,3.47
2022-08-21T21:09:19.850Z,4.47
2022-08-21T21:12:03.187Z,4.07
2022-08-21T21:14:45.776Z,3.97
2022-08-21T21:17:39.458Z,4.18
2022-08-21T21:20:46.866Z,4.45
2022-08-21T21:23:49.828Z,5.20
2022-08-21T21:26:29.124Z,4.60
2022-08-21T21:29:17.829Z,4.97
2022-08-21T21:31:46.730Z,4.78
2022-08-21T21:34:17.453Z,4.88
2022-08-21T21:36:56.743Z,6.00
2022-08-21T21:39:36.516Z,6.05
2022-08-21T21:42:30.276Z,5.63
2022-08-21T21:45:04.353Z,5.72
2022-08-21T21:47:50.023Z,5.50
2022-08-21T21:51:00.859Z,5.57
2022-08-21T21:54:04.363Z,6.25
2022-08-21T21:56:55.411Z,5.20
2022-08-21T21:59:55.283Z,4.60
2022-08-21T22:02:46.282Z,5.93
2022-08-21T22:05:37.636Z,5.57
2022-08-21T22:08:24.004Z,5.60
2022-08-21T22:11:24.207Z,5.35
2022-08-21T22:14:03.608Z,6.68
2022-08-21T22:16:50.482Z,5.88
2022-08-21T22:19:29.854Z,6.13
2022-08-21T22:22:06.848Z,6.32
2022-08-21T22:24:40.492Z,5.50
2022-08-21T22:27:12.994Z,5.68
2022-08-21T22:29:49.770Z,5.72
2022-08-21T22:32:23.575Z,5.50
2022-08-21T22:35:21.332Z,5.70
2022-08-21T22:37:54.211Z,5.95
2022-08-21T22:40:29.469Z,5.43
2022-08-21T22:43:08.509Z,5.43
2022-08-21T22:46:05.796Z,5.32
2022-08-21T22:48:37.278Z,5.53
2022-08-21T22:51:09.033Z,6.22
2022-08-21T22:53:42.773Z,5.55
2022-08-21T22:56:26.782Z,5.88
2022-08-21T22:58:59.216Z,5.43
2022-08-21T23:01:31.995Z,5.78
2022-08-21T23:04:19.552Z,6.40
2022-08-21T23:06:53.394Z,5.97
2022-08-21T23:09:39.246Z,6.40
2022-08-21T23:12:28.163Z,5.32
2022-08-21T23:15:09.536Z,6.03
2022-08-21T23:17:50.141Z,5.45
2022-08-21T23:20:59.800Z,5.50
2022-08-21T23:23:31.271Z,5.60
2022-08-21T23:26:54.047Z,5.82
2022-08-21T23:29:36.351Z,5.18
2022-08-21T23:32:28.355Z,5.78
2022-08-21T23:35:18.666Z,6.05
2022-08-21T23:38:43.943Z,5.63
2022-08-21T23:41:34.433Z,5.10
2022-08-21T23:44:14.339Z,5.20
2022-08-21T23:46:53.881Z,5.03
2022-08-21T23:49:37.205Z,5.60
2022-08-21T23:52:37.424Z,4.90
2022-08-21T23:55:31.822Z,4.72
2022-08-21T23:58:22.275Z,6.13
